»·PEaware :: N107MR CYVR-KSEA

N107MR :: CYVR-KSEA

FLIGHT INFORMATION

Flight Status: Arrived
Operator: Privately registered:
United States
More flights under this callsign
Pilot: Michael R. (16974)
Aircraft: ECLIPSE 500
(EA50)
More flights by this aircraft type
Origin: CYVR Vancouver Intl
Canada
Destination: KSEA Seattle-Tacoma Intl
United States
More flights between these airports :: More routes between these airports
Route: ROESH MARNR7
File this flight plan on PilotEdge
Remarks:
Altitude:
(Current/Filed)
15,000ft
Speed:
(Current/Filed)
370kts
Departed: 03-Mar-18 11:48 AM
Arrived: 03-Mar-18 12:25 PM
Distance/Time
Traveled:
111nm/0:37
Distance/Time
To Go:
Arrived

Flight Plot

Page will automatically refresh every two minutes.

Flight plan parsing failed; only flown route is shown


Map Options




Map Legend


Flown Route
Filed Route
Departure Airport
Arrival Airport
Navaid (VOR, NDB)
Fix

Horizontal Profiles

Position Reports

Time Latitude Longitude Heading Altitude Ground
Speed
03-Mar-18 11:51 49.184662 -123.160569 279 10ft 0kts
03-Mar-18 11:52 49.184662 -123.160569 279 10ft 0kts
03-Mar-18 11:53 49.184662 -123.160569 279 10ft 0kts
03-Mar-18 11:54 49.184750 -123.161353 279 10ft 34kts
03-Mar-18 11:55 49.190493 -123.214713 279 1725ft 177kts
03-Mar-18 11:56 49.199037 -123.300725 279 4642ft 185kts
03-Mar-18 11:57 49.205734 -123.374744 272 6888ft 173kts
03-Mar-18 11:58 49.167127 -123.395920 171 8690ft 175kts
03-Mar-18 11:59 49.120012 -123.380457 149 10367ft 176kts
03-Mar-18 12:00 49.076045 -123.346156 148 13067ft 183kts
03-Mar-18 12:01 49.028203 -123.309714 148 15005ft 231kts
03-Mar-18 12:02 48.962269 -123.260560 149 15010ft 281kts
03-Mar-18 12:03 48.892702 -123.209396 150 14990ft 286kts
03-Mar-18 12:04 48.821917 -123.157632 150 14989ft 286kts
03-Mar-18 12:05 48.750302 -123.105428 150 14998ft 286kts
03-Mar-18 12:06 48.678867 -123.053374 152 14998ft 285kts
03-Mar-18 12:07 48.604604 -123.012698 166 15009ft 288kts
03-Mar-18 12:08 48.526340 -122.989169 167 15000ft 287kts
03-Mar-18 12:09 48.448182 -122.966431 167 15000ft 288kts
03-Mar-18 12:10 48.369459 -122.943812 167 15000ft 289kts
03-Mar-18 12:11 48.290465 -122.921250 167 15027ft 291kts
03-Mar-18 12:12 48.211334 -122.898673 168 15001ft 292kts
03-Mar-18 12:13 48.130855 -122.875824 168 14461ft 299kts
03-Mar-18 12:14 48.054236 -122.854130 169 12755ft 272kts
03-Mar-18 12:15 47.987579 -122.801920 150 12358ft 272kts
03-Mar-18 12:16 47.922597 -122.744185 149 12027ft 271kts
03-Mar-18 12:17 47.860509 -122.688599 149 11704ft 270kts
03-Mar-18 12:18 47.796511 -122.631244 149 11416ft 268kts
03-Mar-18 12:19 47.732866 -122.574310 149 11080ft 267kts
03-Mar-18 12:20 47.666955 -122.527031 155 10583ft 262kts
03-Mar-18 12:21 47.601590 -122.482049 154 10084ft 258kts
03-Mar-18 12:22 47.530881 -122.466360 178 9095ft 264kts
03-Mar-18 12:23 47.465015 -122.466917 178 7908ft 221kts
03-Mar-18 12:24 47.401245 -122.467999 178 7216ft 233kts
03-Mar-18 12:25 47.337806 -122.469258 178 5932ft 226kts
03-Mar-18 12:26 47.279067 -122.455851 120 4532ft 216kts
03-Mar-18 12:27 47.262155 -122.373226 106 4001ft 217kts
03-Mar-18 12:28 47.289466 -122.326845 355 3991ft 197kts
03-Mar-18 12:29 47.342631 -122.317256 3 3425ft 207kts
03-Mar-18 12:30 47.391361 -122.318437 1 1713ft 146kts
03-Mar-18 12:31 47.429247 -122.318267 359 640ft 125kts
03-Mar-18 12:32 47.453759 -122.316992 26 355ft 34kts
03-Mar-18 12:33 47.454671 -122.313470 175 392ft 19kts
03-Mar-18 12:34 47.444393 -122.313569 180 370ft 42kts
03-Mar-18 12:35 47.438714 -122.314847 274 346ft 6kts
03-Mar-18 12:36 47.439356 -122.315346 55 348ft 0kts
03-Mar-18 12:37 47.439356 -122.315346 55 348ft 0kts
03-Mar-18 12:38 47.439356 -122.315346 55 348ft 0kts
03-Mar-18 12:39 47.439356 -122.315346 55 348ft 0kts
03-Mar-18 12:40 47.439356 -122.315346 55 348ft 0kts
03-Mar-18 12:41 47.439356 -122.315346 55 348ft 0kts
03-Mar-18 12:42 47.439356 -122.315346 55 348ft 0kts
03-Mar-18 12:43 47.439356 -122.315346 55 348ft 0kts
03-Mar-18 12:44 47.439356 -122.315346 55 348ft 0kts
03-Mar-18 12:45 47.439356 -122.315346 55 348ft 0kts
03-Mar-18 12:46 47.439356 -122.315346 55 348ft 0kts
03-Mar-18 12:47 47.439356 -122.315346 55 348ft 0kts

Navigation Log

Ident Type
Flight plan parsing failed, navigation log unavailable